Flugplatz Essen Mulheim

Für EDLE sind keine METAR/TAF Berichte vorhanden.
Es werden die Flugwettermeldungen vom Flugplatz Düsseldorf International in 17 km Entfernung angezeigt.

Bericht für EDDL

vom 07.03. um 02:20 UTC

Wind 4 kt aus 80°

Sichtweite 10 km oder mehr

gute Sicht, keine Wolken < 5000 ft, keine CB, keine Wettererscheinungen (CAVOK)

Temperatur -4.0°C

Taupunkt -5.0°C

Luftfeuchtigkeit 93%

Luftdruck 1027 hPa

keine wesentliche Wetteränderung innerhalb den nächsten 2 Stunden zu erwarten

EDDL 070220Z 08004KT CAVOK M04/M05 Q1027 NOSIG

Prognose für EDDL

vom 06.03. um 23:00 UTC

Zwischen 00:00 UTC und 09:00 UTC

variable Windrichtung mit 2 kt

Sichtweite 10 km oder mehr

gering bewölkt in 3000 ft


Zwischen 09:00 und 12:00 UTC übergehend zu

Wind 6 kt aus 340°

Sichtweite 10 km oder mehr

gering bewölkt in 3000 ft


Zwischen 18:00 und 21:00 UTC übergehend zu

variable Windrichtung mit 2 kt

Sichtweite 10 km oder mehr

gering bewölkt in 3000 ft


Am 08.03. zwischen 04:00 UTC und 06:00 UTC zeitweise mit einer Wahrscheinlichkeit von 40%

aufgebrochene Bewölkung in 1200 ft

TAF EDDL 062300Z 0700/0806 VRB02KT 9999 FEW030 BECMG 0709/0712 34006KT BECMG 0718/0721 VRB02KT PROB40 TEMPO 0804/0806 BKN012
Impressum